sensor_id;sensor_type;location;lat;lon;timestamp;P1;durP1;ratioP1;P2;durP2;ratioP2
75148;SDS011;63724;47.470;19.166;2023-03-23T00:00:29;17.20;;;10.27;;
75148;SDS011;63724;47.470;19.166;2023-03-23T00:03:31;18.55;;;9.77;;
75148;SDS011;63724;47.470;19.166;2023-03-23T00:06:35;18.00;;;9.93;;
75148;SDS011;63724;47.470;19.166;2023-03-23T00:09:37;15.50;;;9.20;;
75148;SDS011;63724;47.470;19.166;2023-03-23T00:12:42;18.13;;;10.07;;
75148;SDS011;63724;47.470;19.166;2023-03-23T00:15:46;16.15;;;9.38;;
75148;SDS011;63724;47.470;19.166;2023-03-23T00:18:50;19.52;;;10.85;;
75148;SDS011;63724;47.470;19.166;2023-03-23T00:21:54;15.57;;;9.43;;
75148;SDS011;63724;47.470;19.166;2023-03-23T00:24:56;16.80;;;9.47;;
75148;SDS011;63724;47.470;19.166;2023-03-23T00:27:57;18.13;;;9.40;;
75148;SDS011;63724;47.470;19.166;2023-03-23T00:30:59;18.80;;;9.82;;
75148;SDS011;63724;47.470;19.166;2023-03-23T00:34:03;19.73;;;10.05;;
75148;SDS011;63724;47.470;19.166;2023-03-23T00:37:05;19.50;;;10.47;;
75148;SDS011;63724;47.470;19.166;2023-03-23T00:40:08;20.63;;;10.00;;
75148;SDS011;63724;47.470;19.166;2023-03-23T00:43:11;16.73;;;9.82;;
75148;SDS011;63724;47.470;19.166;2023-03-23T00:46:14;18.58;;;9.68;;
75148;SDS011;63724;47.470;19.166;2023-03-23T00:49:16;22.10;;;9.95;;
75148;SDS011;63724;47.470;19.166;2023-03-23T00:52:20;17.73;;;9.60;;
75148;SDS011;63724;47.470;19.166;2023-03-23T00:55:21;17.93;;;9.80;;
75148;SDS011;63724;47.470;19.166;2023-03-23T00:58:23;24.45;;;10.80;;
75148;SDS011;63724;47.470;19.166;2023-03-23T01:01:24;20.23;;;10.70;;
75148;SDS011;63724;47.470;19.166;2023-03-23T01:04:25;17.80;;;10.10;;
75148;SDS011;63724;47.470;19.166;2023-03-23T01:07:29;21.30;;;10.70;;
75148;SDS011;63724;47.470;19.166;2023-03-23T01:10:32;24.60;;;10.87;;
75148;SDS011;63724;47.470;19.166;2023-03-23T01:13:33;19.58;;;11.27;;
75148;SDS011;63724;47.470;19.166;2023-03-23T01:16:35;20.08;;;10.98;;
75148;SDS011;63724;47.470;19.166;2023-03-23T01:19:36;17.08;;;10.48;;
75148;SDS011;63724;47.470;19.166;2023-03-23T01:22:38;22.33;;;11.57;;
75148;SDS011;63724;47.470;19.166;2023-03-23T01:25:40;22.03;;;11.90;;
75148;SDS011;63724;47.470;19.166;2023-03-23T01:28:41;19.98;;;10.63;;
75148;SDS011;63724;47.470;19.166;2023-03-23T01:31:42;18.27;;;10.60;;
75148;SDS011;63724;47.470;19.166;2023-03-23T01:34:44;23.73;;;11.43;;
75148;SDS011;63724;47.470;19.166;2023-03-23T01:37:45;19.73;;;11.07;;
75148;SDS011;63724;47.470;19.166;2023-03-23T01:40:48;18.10;;;10.87;;
75148;SDS011;63724;47.470;19.166;2023-03-23T01:43:56;20.60;;;11.43;;
75148;SDS011;63724;47.470;19.166;2023-03-23T01:47:05;22.35;;;11.63;;
75148;SDS011;63724;47.470;19.166;2023-03-23T01:50:09;19.67;;;11.35;;
75148;SDS011;63724;47.470;19.166;2023-03-23T01:53:11;20.67;;;11.33;;
75148;SDS011;63724;47.470;19.166;2023-03-23T01:56:13;21.17;;;12.03;;
75148;SDS011;63724;47.470;19.166;2023-03-23T01:59:15;22.08;;;12.52;;
75148;SDS011;63724;47.470;19.166;2023-03-23T02:02:21;19.15;;;10.70;;
75148;SDS011;63724;47.470;19.166;2023-03-23T02:08:37;22.10;;;11.47;;
75148;SDS011;63724;47.470;19.166;2023-03-23T02:11:39;21.63;;;11.73;;
75148;SDS011;63724;47.470;19.166;2023-03-23T02:14:41;21.75;;;11.13;;
75148;SDS011;63724;47.470;19.166;2023-03-23T02:17:46;21.85;;;11.65;;
75148;SDS011;63724;47.470;19.166;2023-03-23T02:24:28;20.73;;;9.87;;
75148;SDS011;63724;47.470;19.166;2023-03-23T02:34:18;20.40;;;10.82;;
75148;SDS011;63724;47.470;19.166;2023-03-23T02:37:33;22.58;;;10.98;;
75148;SDS011;63724;47.470;19.166;2023-03-23T02:40:40;21.17;;;10.47;;
75148;SDS011;63724;47.470;19.166;2023-03-23T02:43:43;23.20;;;10.53;;
75148;SDS011;63724;47.470;19.166;2023-03-23T02:46:45;20.02;;;11.20;;
75148;SDS011;63724;47.470;19.166;2023-03-23T02:49:48;22.13;;;11.07;;
75148;SDS011;63724;47.470;19.166;2023-03-23T02:52:52;20.30;;;12.07;;
75148;SDS011;63724;47.470;19.166;2023-03-23T02:55:54;22.13;;;10.97;;
75148;SDS011;63724;47.470;19.166;2023-03-23T02:59:01;19.27;;;10.67;;
75148;SDS011;63724;47.470;19.166;2023-03-23T03:02:07;21.80;;;11.93;;
75148;SDS011;63724;47.470;19.166;2023-03-23T03:08:42;20.98;;;10.38;;
75148;SDS011;63724;47.470;19.166;2023-03-23T03:11:48;24.40;;;12.33;;
75148;SDS011;63724;47.470;19.166;2023-03-23T03:15:01;23.50;;;11.87;;
75148;SDS011;63724;47.470;19.166;2023-03-23T03:18:24;23.45;;;11.35;;
75148;SDS011;63724;47.470;19.166;2023-03-23T03:21:29;20.15;;;10.48;;
75148;SDS011;63724;47.470;19.166;2023-03-23T03:24:34;21.48;;;10.63;;
75148;SDS011;63724;47.470;19.166;2023-03-23T03:27:38;23.47;;;11.43;;
75148;SDS011;63724;47.470;19.166;2023-03-23T03:30:53;18.03;;;10.03;;
75148;SDS011;63724;47.470;19.166;2023-03-23T03:33:56;20.27;;;10.60;;
75148;SDS011;63724;47.470;19.166;2023-03-23T03:36:59;20.50;;;10.05;;
75148;SDS011;63724;47.470;19.166;2023-03-23T03:40:00;21.45;;;10.88;;
75148;SDS011;63724;47.470;19.166;2023-03-23T03:43:02;18.70;;;10.53;;
75148;SDS011;63724;47.470;19.166;2023-03-23T03:46:04;22.57;;;11.17;;
75148;SDS011;63724;47.470;19.166;2023-03-23T03:49:07;21.77;;;10.75;;
75148;SDS011;63724;47.470;19.166;2023-03-23T03:52:12;22.27;;;10.63;;
75148;SDS011;63724;47.470;19.166;2023-03-23T03:55:16;17.17;;;9.70;;
75148;SDS011;63724;47.470;19.166;2023-03-23T03:58:21;19.13;;;9.73;;
75148;SDS011;63724;47.470;19.166;2023-03-23T04:01:43;17.40;;;9.77;;
75148;SDS011;63724;47.470;19.166;2023-03-23T04:04:46;18.70;;;10.50;;
75148;SDS011;63724;47.470;19.166;2023-03-23T04:07:48;20.80;;;9.98;;
75148;SDS011;63724;47.470;19.166;2023-03-23T04:10:53;20.73;;;10.68;;
75148;SDS011;63724;47.470;19.166;2023-03-23T04:13:55;14.57;;;8.67;;
75148;SDS011;63724;47.470;19.166;2023-03-23T04:16:59;17.20;;;8.93;;
75148;SDS011;63724;47.470;19.166;2023-03-23T04:20:01;19.67;;;9.57;;
75148;SDS011;63724;47.470;19.166;2023-03-23T04:23:09;17.55;;;9.43;;
75148;SDS011;63724;47.470;19.166;2023-03-23T04:26:10;18.25;;;9.10;;
75148;SDS011;63724;47.470;19.166;2023-03-23T04:29:17;15.90;;;8.87;;
75148;SDS011;63724;47.470;19.166;2023-03-23T04:32:56;16.17;;;9.17;;
75148;SDS011;63724;47.470;19.166;2023-03-23T04:36:00;15.52;;;8.30;;
75148;SDS011;63724;47.470;19.166;2023-03-23T04:39:11;17.52;;;9.57;;
75148;SDS011;63724;47.470;19.166;2023-03-23T04:42:14;15.32;;;9.30;;
75148;SDS011;63724;47.470;19.166;2023-03-23T04:45:33;12.87;;;7.43;;
75148;SDS011;63724;47.470;19.166;2023-03-23T04:48:35;13.93;;;7.53;;
75148;SDS011;63724;47.470;19.166;2023-03-23T04:51:44;12.90;;;6.93;;
75148;SDS011;63724;47.470;19.166;2023-03-23T04:54:56;14.27;;;7.47;;
75148;SDS011;63724;47.470;19.166;2023-03-23T04:57:59;11.40;;;6.70;;
75148;SDS011;63724;47.470;19.166;2023-03-23T05:01:32;12.70;;;7.00;;
75148;SDS011;63724;47.470;19.166;2023-03-23T05:04:56;16.47;;;7.10;;
75148;SDS011;63724;47.470;19.166;2023-03-23T05:08:00;14.70;;;7.00;;
75148;SDS011;63724;47.470;19.166;2023-03-23T05:11:05;10.88;;;6.80;;
75148;SDS011;63724;47.470;19.166;2023-03-23T05:14:10;10.48;;;6.60;;
75148;SDS011;63724;47.470;19.166;2023-03-23T05:17:13;13.50;;;6.73;;
75148;SDS011;63724;47.470;19.166;2023-03-23T05:20:18;13.17;;;7.07;;
75148;SDS011;63724;47.470;19.166;2023-03-23T05:23:24;12.90;;;7.07;;
75148;SDS011;63724;47.470;19.166;2023-03-23T05:26:30;12.50;;;7.00;;
75148;SDS011;63724;47.470;19.166;2023-03-23T05:29:39;13.25;;;6.88;;
75148;SDS011;63724;47.470;19.166;2023-03-23T05:32:42;11.67;;;7.27;;
75148;SDS011;63724;47.470;19.166;2023-03-23T05:36:17;12.40;;;6.97;;
75148;SDS011;63724;47.470;19.166;2023-03-23T05:39:39;13.05;;;6.72;;
75148;SDS011;63724;47.470;19.166;2023-03-23T05:43:03;14.35;;;7.03;;
75148;SDS011;63724;47.470;19.166;2023-03-23T05:46:15;11.88;;;7.03;;
75148;SDS011;63724;47.470;19.166;2023-03-23T05:49:16;15.37;;;6.93;;
75148;SDS011;63724;47.470;19.166;2023-03-23T05:52:18;9.67;;;6.17;;
75148;SDS011;63724;47.470;19.166;2023-03-23T05:55:22;14.93;;;6.90;;
75148;SDS011;63724;47.470;19.166;2023-03-23T05:58:32;13.15;;;6.88;;
75148;SDS011;63724;47.470;19.166;2023-03-23T06:01:33;10.07;;;6.18;;
75148;SDS011;63724;47.470;19.166;2023-03-23T06:04:34;11.80;;;7.70;;
75148;SDS011;63724;47.470;19.166;2023-03-23T06:07:45;14.03;;;6.40;;
75148;SDS011;63724;47.470;19.166;2023-03-23T06:10:47;10.80;;;6.18;;
75148;SDS011;63724;47.470;19.166;2023-03-23T06:13:49;13.00;;;6.72;;
75148;SDS011;63724;47.470;19.166;2023-03-23T06:16:50;10.27;;;6.20;;
75148;SDS011;63724;47.470;19.166;2023-03-23T06:19:52;13.07;;;6.23;;
75148;SDS011;63724;47.470;19.166;2023-03-23T06:22:53;11.83;;;6.87;;
75148;SDS011;63724;47.470;19.166;2023-03-23T06:26:03;11.25;;;6.53;;
75148;SDS011;63724;47.470;19.166;2023-03-23T06:29:07;14.70;;;6.72;;
75148;SDS011;63724;47.470;19.166;2023-03-23T06:32:14;27.42;;;8.00;;
75148;SDS011;63724;47.470;19.166;2023-03-23T06:35:18;13.43;;;7.70;;
75148;SDS011;63724;47.470;19.166;2023-03-23T06:38:28;11.20;;;7.10;;
75148;SDS011;63724;47.470;19.166;2023-03-23T06:41:30;11.82;;;7.65;;
75148;SDS011;63724;47.470;19.166;2023-03-23T06:44:32;15.30;;;8.45;;
75148;SDS011;63724;47.470;19.166;2023-03-23T06:47:34;12.55;;;7.38;;
75148;SDS011;63724;47.470;19.166;2023-03-23T06:50:36;18.13;;;7.90;;
75148;SDS011;63724;47.470;19.166;2023-03-23T06:53:38;12.50;;;7.37;;
75148;SDS011;63724;47.470;19.166;2023-03-23T06:56:42;13.85;;;7.57;;
75148;SDS011;63724;47.470;19.166;2023-03-23T06:59:44;17.90;;;8.13;;
75148;SDS011;63724;47.470;19.166;2023-03-23T07:02:45;19.02;;;9.77;;
75148;SDS011;63724;47.470;19.166;2023-03-23T07:05:47;13.20;;;8.47;;
75148;SDS011;63724;47.470;19.166;2023-03-23T07:08:51;18.40;;;8.90;;
75148;SDS011;63724;47.470;19.166;2023-03-23T07:11:56;13.68;;;8.27;;
75148;SDS011;63724;47.470;19.166;2023-03-23T07:15:09;14.02;;;8.30;;
75148;SDS011;63724;47.470;19.166;2023-03-23T07:18:14;14.52;;;8.27;;
75148;SDS011;63724;47.470;19.166;2023-03-23T07:21:21;16.17;;;8.97;;
75148;SDS011;63724;47.470;19.166;2023-03-23T07:24:22;13.47;;;8.47;;
75148;SDS011;63724;47.470;19.166;2023-03-23T07:27:35;15.40;;;8.00;;
75148;SDS011;63724;47.470;19.166;2023-03-23T07:30:42;12.25;;;7.68;;
75148;SDS011;63724;47.470;19.166;2023-03-23T07:33:55;13.60;;;6.95;;
75148;SDS011;63724;47.470;19.166;2023-03-23T07:37:01;15.10;;;7.63;;
75148;SDS011;63724;47.470;19.166;2023-03-23T07:40:08;13.73;;;7.60;;
75148;SDS011;63724;47.470;19.166;2023-03-23T07:43:18;11.32;;;7.28;;
75148;SDS011;63724;47.470;19.166;2023-03-23T07:46:49;14.68;;;7.55;;
75148;SDS011;63724;47.470;19.166;2023-03-23T07:54:31;13.03;;;8.37;;
75148;SDS011;63724;47.470;19.166;2023-03-23T08:07:44;10.55;;;7.38;;
75148;SDS011;63724;47.470;19.166;2023-03-23T08:11:21;12.15;;;7.75;;
75148;SDS011;63724;47.470;19.166;2023-03-23T08:14:41;11.63;;;7.17;;
75148;SDS011;63724;47.470;19.166;2023-03-23T08:18:01;12.83;;;7.90;;
75148;SDS011;63724;47.470;19.166;2023-03-23T08:21:22;18.45;;;8.05;;
75148;SDS011;63724;47.470;19.166;2023-03-23T08:24:43;15.50;;;8.00;;
75148;SDS011;63724;47.470;19.166;2023-03-23T08:28:03;16.10;;;7.95;;
75148;SDS011;63724;47.470;19.166;2023-03-23T08:31:24;17.50;;;8.57;;
75148;SDS011;63724;47.470;19.166;2023-03-23T08:34:54;14.50;;;8.23;;
75148;SDS011;63724;47.470;19.166;2023-03-23T08:38:19;17.77;;;7.75;;
75148;SDS011;63724;47.470;19.166;2023-03-23T08:41:40;17.70;;;7.05;;
75148;SDS011;63724;47.470;19.166;2023-03-23T08:45:12;11.38;;;7.53;;
75148;SDS011;63724;47.470;19.166;2023-03-23T08:48:28;13.20;;;8.03;;
75148;SDS011;63724;47.470;19.166;2023-03-23T08:51:35;18.40;;;7.23;;
75148;SDS011;63724;47.470;19.166;2023-03-23T08:54:49;12.05;;;6.43;;
75148;SDS011;63724;47.470;19.166;2023-03-23T08:58:20;12.57;;;5.97;;
75148;SDS011;63724;47.470;19.166;2023-03-23T09:01:30;17.23;;;6.00;;
75148;SDS011;63724;47.470;19.166;2023-03-23T09:04:49;13.83;;;5.37;;
75148;SDS011;63724;47.470;19.166;2023-03-23T09:08:07;9.77;;;4.63;;
75148;SDS011;63724;47.470;19.166;2023-03-23T09:11:09;16.15;;;4.88;;
75148;SDS011;63724;47.470;19.166;2023-03-23T09:14:10;9.70;;;5.35;;
75148;SDS011;63724;47.470;19.166;2023-03-23T09:17:13;7.88;;;4.70;;
75148;SDS011;63724;47.470;19.166;2023-03-23T09:20:15;13.43;;;4.90;;
75148;SDS011;63724;47.470;19.166;2023-03-23T09:23:19;9.80;;;4.90;;
75148;SDS011;63724;47.470;19.166;2023-03-23T09:26:21;9.77;;;4.53;;
75148;SDS011;63724;47.470;19.166;2023-03-23T09:29:22;9.60;;;4.63;;
75148;SDS011;63724;47.470;19.166;2023-03-23T09:32:23;10.30;;;4.97;;
75148;SDS011;63724;47.470;19.166;2023-03-23T09:35:24;13.53;;;4.73;;
75148;SDS011;63724;47.470;19.166;2023-03-23T09:38:26;10.30;;;4.20;;
75148;SDS011;63724;47.470;19.166;2023-03-23T09:56:05;8.77;;;4.10;;
75148;SDS011;63724;47.470;19.166;2023-03-23T09:59:16;10.85;;;4.43;;
75148;SDS011;63724;47.470;19.166;2023-03-23T10:02:28;6.57;;;4.20;;
75148;SDS011;63724;47.470;19.166;2023-03-23T10:05:39;6.82;;;4.90;;
75148;SDS011;63724;47.470;19.166;2023-03-23T10:08:51;4.63;;;3.30;;
75148;SDS011;63724;47.470;19.166;2023-03-23T10:11:56;7.80;;;3.87;;
75148;SDS011;63724;47.470;19.166;2023-03-23T10:18:18;5.00;;;2.83;;
75148;SDS011;63724;47.470;19.166;2023-03-23T10:21:23;5.63;;;3.22;;
75148;SDS011;63724;47.470;19.166;2023-03-23T10:24:26;6.87;;;2.93;;
75148;SDS011;63724;47.470;19.166;2023-03-23T10:27:33;5.73;;;3.03;;
75148;SDS011;63724;47.470;19.166;2023-03-23T10:30:40;6.35;;;3.53;;
75148;SDS011;63724;47.470;19.166;2023-03-23T10:33:47;6.18;;;2.88;;
75148;SDS011;63724;47.470;19.166;2023-03-23T10:36:55;4.68;;;2.95;;
75148;SDS011;63724;47.470;19.166;2023-03-23T10:40:02;3.23;;;2.27;;
75148;SDS011;63724;47.470;19.166;2023-03-23T10:43:07;8.77;;;2.40;;
75148;SDS011;63724;47.470;19.166;2023-03-23T10:46:56;6.18;;;2.33;;
75148;SDS011;63724;47.470;19.166;2023-03-23T10:49:45;6.07;;;2.53;;
75148;SDS011;63724;47.470;19.166;2023-03-23T10:52:51;5.82;;;2.60;;
75148;SDS011;63724;47.470;19.166;2023-03-23T10:55:54;6.83;;;2.50;;
75148;SDS011;63724;47.470;19.166;2023-03-23T10:58:56;7.63;;;2.77;;
75148;SDS011;63724;47.470;19.166;2023-03-23T11:01:58;5.90;;;2.75;;
75148;SDS011;63724;47.470;19.166;2023-03-23T11:05:05;4.75;;;2.85;;
75148;SDS011;63724;47.470;19.166;2023-03-23T11:08:15;9.15;;;3.15;;
75148;SDS011;63724;47.470;19.166;2023-03-23T11:11:54;7.90;;;2.70;;
75148;SDS011;63724;47.470;19.166;2023-03-23T11:15:03;6.37;;;2.43;;
75148;SDS011;63724;47.470;19.166;2023-03-23T11:21:20;5.05;;;2.55;;
75148;SDS011;63724;47.470;19.166;2023-03-23T11:24:24;6.55;;;1.95;;
75148;SDS011;63724;47.470;19.166;2023-03-23T11:27:27;9.00;;;2.07;;
75148;SDS011;63724;47.470;19.166;2023-03-23T11:30:29;8.60;;;2.53;;
75148;SDS011;63724;47.470;19.166;2023-03-23T11:33:46;11.65;;;3.30;;
75148;SDS011;63724;47.470;19.166;2023-03-23T11:37:09;6.88;;;2.88;;
75148;SDS011;63724;47.470;19.166;2023-03-23T11:40:22;5.00;;;2.35;;
75148;SDS011;63724;47.470;19.166;2023-03-23T11:43:28;19.00;;;2.60;;
75148;SDS011;63724;47.470;19.166;2023-03-23T11:46:34;9.23;;;2.93;;
75148;SDS011;63724;47.470;19.166;2023-03-23T11:56:29;3.38;;;1.70;;
75148;SDS011;63724;47.470;19.166;2023-03-23T11:59:34;3.60;;;1.60;;
75148;SDS011;63724;47.470;19.166;2023-03-23T12:02:39;5.23;;;1.83;;
75148;SDS011;63724;47.470;19.166;2023-03-23T12:06:20;4.50;;;1.73;;
75148;SDS011;63724;47.470;19.166;2023-03-23T12:19:59;4.90;;;1.90;;
75148;SDS011;63724;47.470;19.166;2023-03-23T12:23:38;9.85;;;2.13;;
75148;SDS011;63724;47.470;19.166;2023-03-23T12:26:49;5.75;;;1.95;;
75148;SDS011;63724;47.470;19.166;2023-03-23T12:30:02;2.63;;;1.75;;
75148;SDS011;63724;47.470;19.166;2023-03-23T12:33:21;6.37;;;2.03;;
75148;SDS011;63724;47.470;19.166;2023-03-23T12:36:34;2.97;;;1.50;;
75148;SDS011;63724;47.470;19.166;2023-03-23T12:43:38;6.38;;;1.88;;
75148;SDS011;63724;47.470;19.166;2023-03-23T12:53:50;4.47;;;2.00;;
75148;SDS011;63724;47.470;19.166;2023-03-23T13:00:05;3.05;;;1.65;;
75148;SDS011;63724;47.470;19.166;2023-03-23T13:03:19;8.75;;;2.38;;
75148;SDS011;63724;47.470;19.166;2023-03-23T13:09:55;3.60;;;1.90;;
75148;SDS011;63724;47.470;19.166;2023-03-23T13:13:06;3.58;;;2.05;;
75148;SDS011;63724;47.470;19.166;2023-03-23T13:16:17;5.55;;;1.77;;
75148;SDS011;63724;47.470;19.166;2023-03-23T13:22:45;1.83;;;1.30;;
75148;SDS011;63724;47.470;19.166;2023-03-23T13:26:11;2.83;;;1.70;;
75148;SDS011;63724;47.470;19.166;2023-03-23T13:29:16;5.65;;;1.90;;
75148;SDS011;63724;47.470;19.166;2023-03-23T13:32:20;3.50;;;1.92;;
75148;SDS011;63724;47.470;19.166;2023-03-23T13:35:24;3.47;;;1.92;;
75148;SDS011;63724;47.470;19.166;2023-03-23T13:38:28;11.77;;;1.83;;
75148;SDS011;63724;47.470;19.166;2023-03-23T13:41:30;7.87;;;2.10;;
75148;SDS011;63724;47.470;19.166;2023-03-23T13:48:02;5.20;;;1.80;;
75148;SDS011;63724;47.470;19.166;2023-03-23T13:54:40;5.13;;;2.00;;
75148;SDS011;63724;47.470;19.166;2023-03-23T13:57:53;6.47;;;2.10;;
75148;SDS011;63724;47.470;19.166;2023-03-23T14:01:17;4.25;;;1.60;;
75148;SDS011;63724;47.470;19.166;2023-03-23T14:04:19;3.85;;;1.75;;
75148;SDS011;63724;47.470;19.166;2023-03-23T14:07:21;5.80;;;1.77;;
75148;SDS011;63724;47.470;19.166;2023-03-23T14:10:31;11.03;;;2.30;;
75148;SDS011;63724;47.470;19.166;2023-03-23T14:13:37;4.40;;;1.87;;
75148;SDS011;63724;47.470;19.166;2023-03-23T14:16:44;3.63;;;2.13;;
75148;SDS011;63724;47.470;19.166;2023-03-23T14:19:50;3.30;;;2.00;;
75148;SDS011;63724;47.470;19.166;2023-03-23T14:22:57;6.43;;;2.05;;
75148;SDS011;63724;47.470;19.166;2023-03-23T14:26:05;6.13;;;2.00;;
75148;SDS011;63724;47.470;19.166;2023-03-23T14:29:12;6.33;;;2.03;;
75148;SDS011;63724;47.470;19.166;2023-03-23T14:32:14;7.07;;;1.65;;
75148;SDS011;63724;47.470;19.166;2023-03-23T14:35:28;5.53;;;2.30;;
75148;SDS011;63724;47.470;19.166;2023-03-23T14:38:30;6.88;;;2.65;;
75148;SDS011;63724;47.470;19.166;2023-03-23T14:41:34;7.27;;;2.20;;
75148;SDS011;63724;47.470;19.166;2023-03-23T14:44:41;6.27;;;2.37;;
75148;SDS011;63724;47.470;19.166;2023-03-23T14:47:45;5.88;;;2.00;;
75148;SDS011;63724;47.470;19.166;2023-03-23T14:50:51;4.35;;;2.00;;
75148;SDS011;63724;47.470;19.166;2023-03-23T14:53:57;16.70;;;2.58;;
75148;SDS011;63724;47.470;19.166;2023-03-23T15:00:21;4.20;;;2.60;;
75148;SDS011;63724;47.470;19.166;2023-03-23T15:03:35;8.52;;;1.95;;
75148;SDS011;63724;47.470;19.166;2023-03-23T15:06:39;4.55;;;2.03;;
75148;SDS011;63724;47.470;19.166;2023-03-23T15:09:42;5.05;;;1.77;;
75148;SDS011;63724;47.470;19.166;2023-03-23T15:12:46;2.27;;;1.83;;
75148;SDS011;63724;47.470;19.166;2023-03-23T15:15:51;3.57;;;2.00;;
75148;SDS011;63724;47.470;19.166;2023-03-23T15:18:56;7.20;;;1.85;;
75148;SDS011;63724;47.470;19.166;2023-03-23T15:25:29;9.00;;;1.75;;
75148;SDS011;63724;47.470;19.166;2023-03-23T15:28:32;4.90;;;1.77;;
75148;SDS011;63724;47.470;19.166;2023-03-23T15:31:38;10.43;;;1.90;;
75148;SDS011;63724;47.470;19.166;2023-03-23T15:34:40;5.30;;;1.95;;
75148;SDS011;63724;47.470;19.166;2023-03-23T15:37:43;4.20;;;1.90;;
75148;SDS011;63724;47.470;19.166;2023-03-23T15:40:48;2.97;;;1.95;;
75148;SDS011;63724;47.470;19.166;2023-03-23T15:43:52;6.47;;;2.83;;
75148;SDS011;63724;47.470;19.166;2023-03-23T15:47:16;13.77;;;2.57;;
75148;SDS011;63724;47.470;19.166;2023-03-23T15:53:30;5.20;;;2.53;;
75148;SDS011;63724;47.470;19.166;2023-03-23T15:56:32;5.45;;;2.40;;
75148;SDS011;63724;47.470;19.166;2023-03-23T15:59:33;6.83;;;2.70;;
75148;SDS011;63724;47.470;19.166;2023-03-23T16:02:35;6.80;;;2.37;;
75148;SDS011;63724;47.470;19.166;2023-03-23T16:05:38;9.30;;;2.25;;
75148;SDS011;63724;47.470;19.166;2023-03-23T16:08:41;7.32;;;1.92;;
75148;SDS011;63724;47.470;19.166;2023-03-23T16:11:55;3.38;;;1.63;;
75148;SDS011;63724;47.470;19.166;2023-03-23T16:14:58;6.20;;;2.20;;
75148;SDS011;63724;47.470;19.166;2023-03-23T16:18:02;6.03;;;1.87;;
75148;SDS011;63724;47.470;19.166;2023-03-23T16:21:04;4.82;;;2.03;;
75148;SDS011;63724;47.470;19.166;2023-03-23T16:24:08;6.68;;;1.77;;
75148;SDS011;63724;47.470;19.166;2023-03-23T16:27:11;3.03;;;2.10;;
75148;SDS011;63724;47.470;19.166;2023-03-23T16:30:22;5.57;;;1.47;;
75148;SDS011;63724;47.470;19.166;2023-03-23T16:33:25;6.17;;;1.43;;
75148;SDS011;63724;47.470;19.166;2023-03-23T16:36:28;5.30;;;1.98;;
75148;SDS011;63724;47.470;19.166;2023-03-23T16:39:30;4.78;;;1.77;;
75148;SDS011;63724;47.470;19.166;2023-03-23T16:42:34;5.43;;;1.45;;
75148;SDS011;63724;47.470;19.166;2023-03-23T16:45:37;3.77;;;1.43;;
75148;SDS011;63724;47.470;19.166;2023-03-23T16:48:45;5.83;;;1.80;;
75148;SDS011;63724;47.470;19.166;2023-03-23T16:51:48;11.00;;;1.95;;
75148;SDS011;63724;47.470;19.166;2023-03-23T16:54:50;3.55;;;1.40;;
75148;SDS011;63724;47.470;19.166;2023-03-23T16:57:53;8.15;;;1.95;;
75148;SDS011;63724;47.470;19.166;2023-03-23T17:01:14;5.37;;;1.77;;
75148;SDS011;63724;47.470;19.166;2023-03-23T17:04:17;3.77;;;1.60;;
75148;SDS011;63724;47.470;19.166;2023-03-23T17:07:20;4.60;;;2.20;;
75148;SDS011;63724;47.470;19.166;2023-03-23T17:10:23;7.47;;;2.00;;
75148;SDS011;63724;47.470;19.166;2023-03-23T17:13:28;7.50;;;2.00;;
75148;SDS011;63724;47.470;19.166;2023-03-23T17:16:30;3.67;;;1.67;;
75148;SDS011;63724;47.470;19.166;2023-03-23T17:19:33;8.83;;;1.73;;
75148;SDS011;63724;47.470;19.166;2023-03-23T17:22:37;4.43;;;1.55;;
75148;SDS011;63724;47.470;19.166;2023-03-23T17:25:40;4.70;;;1.80;;
75148;SDS011;63724;47.470;19.166;2023-03-23T17:28:43;8.50;;;2.22;;
75148;SDS011;63724;47.470;19.166;2023-03-23T17:31:45;3.60;;;1.90;;
75148;SDS011;63724;47.470;19.166;2023-03-23T17:34:48;4.80;;;2.23;;
75148;SDS011;63724;47.470;19.166;2023-03-23T17:37:50;9.27;;;2.42;;
75148;SDS011;63724;47.470;19.166;2023-03-23T17:40:56;4.07;;;2.45;;
75148;SDS011;63724;47.470;19.166;2023-03-23T17:44:02;9.82;;;2.60;;
75148;SDS011;63724;47.470;19.166;2023-03-23T17:47:05;8.80;;;2.63;;
75148;SDS011;63724;47.470;19.166;2023-03-23T17:50:07;14.53;;;5.70;;
75148;SDS011;63724;47.470;19.166;2023-03-23T17:53:13;7.88;;;3.95;;
75148;SDS011;63724;47.470;19.166;2023-03-23T17:56:16;9.77;;;2.90;;
75148;SDS011;63724;47.470;19.166;2023-03-23T17:59:19;9.88;;;3.50;;
75148;SDS011;63724;47.470;19.166;2023-03-23T18:02:22;9.97;;;3.47;;
75148;SDS011;63724;47.470;19.166;2023-03-23T18:05:25;9.10;;;3.93;;
75148;SDS011;63724;47.470;19.166;2023-03-23T18:08:29;9.65;;;4.00;;
75148;SDS011;63724;47.470;19.166;2023-03-23T18:11:31;13.88;;;4.38;;
75148;SDS011;63724;47.470;19.166;2023-03-23T18:14:34;8.82;;;3.97;;
75148;SDS011;63724;47.470;19.166;2023-03-23T18:17:36;8.33;;;4.10;;
75148;SDS011;63724;47.470;19.166;2023-03-23T18:20:39;7.43;;;3.77;;
75148;SDS011;63724;47.470;19.166;2023-03-23T18:23:41;8.85;;;4.22;;
75148;SDS011;63724;47.470;19.166;2023-03-23T18:26:59;8.48;;;3.67;;
75148;SDS011;63724;47.470;19.166;2023-03-23T18:30:03;9.70;;;4.22;;
75148;SDS011;63724;47.470;19.166;2023-03-23T18:33:06;11.43;;;4.60;;
75148;SDS011;63724;47.470;19.166;2023-03-23T18:36:08;14.17;;;4.33;;
75148;SDS011;63724;47.470;19.166;2023-03-23T18:39:11;14.68;;;4.40;;
75148;SDS011;63724;47.470;19.166;2023-03-23T18:42:14;8.55;;;4.30;;
75148;SDS011;63724;47.470;19.166;2023-03-23T18:45:16;12.00;;;5.10;;
75148;SDS011;63724;47.470;19.166;2023-03-23T18:48:19;10.20;;;4.63;;
75148;SDS011;63724;47.470;19.166;2023-03-23T18:51:21;14.50;;;5.60;;
75148;SDS011;63724;47.470;19.166;2023-03-23T18:54:24;9.77;;;4.85;;
75148;SDS011;63724;47.470;19.166;2023-03-23T18:57:26;11.02;;;5.57;;
75148;SDS011;63724;47.470;19.166;2023-03-23T19:00:29;12.00;;;5.75;;
75148;SDS011;63724;47.470;19.166;2023-03-23T19:03:32;18.00;;;6.20;;
75148;SDS011;63724;47.470;19.166;2023-03-23T19:06:35;12.60;;;7.53;;
75148;SDS011;63724;47.470;19.166;2023-03-23T19:09:38;17.58;;;8.63;;
75148;SDS011;63724;47.470;19.166;2023-03-23T19:12:42;16.10;;;9.48;;
75148;SDS011;63724;47.470;19.166;2023-03-23T19:15:44;14.05;;;8.45;;
75148;SDS011;63724;47.470;19.166;2023-03-23T19:18:47;16.30;;;8.10;;
75148;SDS011;63724;47.470;19.166;2023-03-23T19:21:49;15.33;;;8.10;;
75148;SDS011;63724;47.470;19.166;2023-03-23T19:24:52;18.98;;;7.70;;
75148;SDS011;63724;47.470;19.166;2023-03-23T19:27:54;14.55;;;9.18;;
75148;SDS011;63724;47.470;19.166;2023-03-23T19:30:59;14.02;;;8.55;;
75148;SDS011;63724;47.470;19.166;2023-03-23T19:34:05;23.50;;;12.63;;
75148;SDS011;63724;47.470;19.166;2023-03-23T19:37:07;21.70;;;11.63;;
75148;SDS011;63724;47.470;19.166;2023-03-23T19:40:12;22.30;;;11.88;;
75148;SDS011;63724;47.470;19.166;2023-03-23T19:43:34;24.70;;;12.25;;
75148;SDS011;63724;47.470;19.166;2023-03-23T19:46:38;20.92;;;11.63;;
75148;SDS011;63724;47.470;19.166;2023-03-23T19:49:41;20.43;;;11.60;;
75148;SDS011;63724;47.470;19.166;2023-03-23T19:52:43;19.97;;;10.03;;
75148;SDS011;63724;47.470;19.166;2023-03-23T19:55:46;21.05;;;11.35;;
75148;SDS011;63724;47.470;19.166;2023-03-23T19:58:49;16.60;;;9.48;;
75148;SDS011;63724;47.470;19.166;2023-03-23T20:01:51;19.98;;;9.73;;